createdAt,value
2024-05-09T00:00:39.266Z,71.95
2024-05-09T00:03:46.886Z,71.97
2024-05-09T00:06:51.743Z,72.13
2024-05-09T00:09:50.910Z,72.59
2024-05-09T00:12:55.698Z,72.48
2024-05-09T00:16:01.753Z,72.97
2024-05-09T00:19:00.269Z,73.23
2024-05-09T00:22:06.731Z,73.16
2024-05-09T00:25:06.131Z,73.11
2024-05-09T00:28:10.705Z,73.12
2024-05-09T00:31:23.728Z,73.36
2024-05-09T00:34:21.880Z,73.35
2024-05-09T00:37:26.741Z,73.60
2024-05-09T00:40:35.360Z,73.76
2024-05-09T00:43:44.805Z,73.95
2024-05-09T00:46:44.484Z,74.36
2024-05-09T00:49:49.879Z,74.32
2024-05-09T00:52:55.775Z,74.26
2024-05-09T00:55:56.800Z,73.92
2024-05-09T00:59:03.854Z,73.77
2024-05-09T01:02:02.273Z,74.12
2024-05-09T01:05:06.866Z,74.06
2024-05-09T01:08:06.057Z,74.14
2024-05-09T01:11:10.877Z,74.37
2024-05-09T01:14:09.143Z,74.19
2024-05-09T01:17:15.826Z,73.87
2024-05-09T01:20:20.167Z,73.64
2024-05-09T01:23:33.923Z,73.52
2024-05-09T01:26:32.136Z,73.48
2024-05-09T01:29:36.866Z,73.75
2024-05-09T01:32:35.267Z,73.57
2024-05-09T01:35:46.782Z,73.56
2024-05-09T01:38:46.106Z,73.71
2024-05-09T01:41:50.805Z,73.63
2024-05-09T01:44:56.781Z,73.53
2024-05-09T01:47:56.142Z,73.14
2024-05-09T01:51:00.897Z,73.04
2024-05-09T01:54:06.895Z,73.14
2024-05-09T01:57:05.850Z,73.00
2024-05-09T02:00:07.642Z,72.71
2024-05-09T02:03:16.480Z,72.98
2024-05-09T02:06:22.817Z,72.88
2024-05-09T02:09:29.795Z,73.09
2024-05-09T02:12:28.216Z,73.04
2024-05-09T02:15:33.824Z,73.14
2024-05-09T02:18:32.155Z,72.88
2024-05-09T02:21:40.813Z,72.68
2024-05-09T02:24:46.818Z,72.82
2024-05-09T02:27:45.204Z,72.67
2024-05-09T02:30:49.822Z,72.81
2024-05-09T02:33:55.004Z,73.12
2024-05-09T02:36:56.144Z,72.66
2024-05-09T02:40:00.842Z,72.41
2024-05-09T02:42:59.932Z,72.53
2024-05-09T02:46:04.865Z,72.56
2024-05-09T02:49:04.076Z,72.89
2024-05-09T02:52:09.868Z,72.36
2024-05-09T02:55:14.955Z,72.61
2024-05-09T02:58:13.875Z,72.99
2024-05-09T03:01:12.112Z,72.51
2024-05-09T03:04:17.890Z,72.56
2024-05-09T03:07:22.871Z,73.11
2024-05-09T03:10:25.686Z,73.24
2024-05-09T03:13:33.868Z,73.41
2024-05-09T03:16:38.881Z,73.80
2024-05-09T03:19:38.337Z,73.78
2024-05-09T03:22:43.899Z,73.76
2024-05-09T03:25:57.154Z,73.90
2024-05-09T03:29:01.895Z,73.68
2024-05-09T03:32:01.390Z,73.99
2024-05-09T03:35:13.006Z,73.71
2024-05-09T03:38:19.029Z,73.72
2024-05-09T03:41:23.953Z,73.69
2024-05-09T03:44:22.247Z,73.85
2024-05-09T03:47:27.111Z,73.78
2024-05-09T03:50:35.557Z,74.11
2024-05-09T03:53:41.999Z,73.87
2024-05-09T03:56:40.260Z,74.06
2024-05-09T03:59:45.898Z,74.48
2024-05-09T04:02:54.003Z,74.67
2024-05-09T04:05:53.067Z,74.89
2024-05-09T04:08:57.888Z,75.02
2024-05-09T04:11:57.240Z,75.20
2024-05-09T04:15:01.913Z,75.70
2024-05-09T04:18:01.914Z,76.11
2024-05-09T04:21:09.021Z,76.77
2024-05-09T04:24:08.013Z,76.83
2024-05-09T04:27:12.927Z,77.14
2024-05-09T04:30:26.231Z,77.49
2024-05-09T04:33:41.058Z,77.79
2024-05-09T04:36:41.624Z,77.55
2024-05-09T04:39:46.986Z,78.08
2024-05-09T04:42:54.959Z,78.58
2024-05-09T04:45:53.500Z,78.33
2024-05-09T04:49:00.031Z,78.37
2024-05-09T04:51:59.310Z,78.13
2024-05-09T04:55:04.941Z,77.89
2024-05-09T04:58:12.151Z,78.46
2024-05-09T05:01:17.985Z,78.36
2024-05-09T05:04:16.442Z,78.34
2024-05-09T05:07:21.950Z,78.40
2024-05-09T05:10:25.494Z,78.69
2024-05-09T05:13:36.724Z,79.24
2024-05-09T05:16:36.369Z,79.45
2024-05-09T05:19:42.022Z,79.92
2024-05-09T05:22:43.714Z,79.57
2024-05-09T05:25:50.183Z,80.06
2024-05-09T05:28:55.097Z,80.35
2024-05-09T05:31:54.143Z,80.46
2024-05-09T05:34:59.020Z,79.96
2024-05-09T05:37:57.124Z,79.84
2024-05-09T05:41:02.102Z,80.31
2024-05-09T05:44:00.100Z,80.13
2024-05-09T05:47:04.998Z,80.40
2024-05-09T05:50:07.081Z,80.02
2024-05-09T05:53:16.074Z,80.54
2024-05-09T05:56:21.095Z,80.22
2024-05-09T05:59:19.417Z,80.98
2024-05-09T06:02:24.074Z,80.64
2024-05-09T06:05:29.167Z,80.62
2024-05-09T06:08:35.035Z,81.08
2024-05-09T06:11:33.374Z,80.67
2024-05-09T06:14:39.092Z,81.20
2024-05-09T06:17:38.429Z,80.73
2024-05-09T06:20:44.514Z,80.64
2024-05-09T06:23:47.454Z,80.87
2024-05-09T06:26:42.375Z,80.83
2024-05-09T06:29:27.892Z,80.79
2024-05-09T06:32:13.447Z,79.42
2024-05-09T06:34:59.035Z,75.04
2024-05-09T06:37:44.635Z,70.77
2024-05-09T06:40:37.161Z,69.34
2024-05-09T06:43:24.743Z,66.63
2024-05-09T06:46:10.146Z,64.46
2024-05-09T06:48:57.051Z,63.35
2024-05-09T06:51:42.879Z,60.88
2024-05-09T06:54:28.227Z,60.66
2024-05-09T06:57:13.928Z,61.03
2024-05-09T07:00:00.881Z,61.01
2024-05-09T07:02:46.391Z,60.36
2024-05-09T07:05:31.824Z,59.90
2024-05-09T07:08:18.002Z,59.38
2024-05-09T07:11:04.558Z,57.08
2024-05-09T07:13:50.343Z,57.37
2024-05-09T07:16:36.082Z,55.78
2024-05-09T07:19:21.398Z,54.99
2024-05-09T07:22:07.237Z,55.48
2024-05-09T07:24:53.807Z,54.36
2024-05-09T07:27:39.204Z,54.53
2024-05-09T07:30:32.671Z,53.17
2024-05-09T07:33:27.385Z,54.10
2024-05-09T07:36:19.216Z,53.44
2024-05-09T07:39:05.817Z,53.92
2024-05-09T07:41:51.329Z,52.72
2024-05-09T07:44:36.719Z,52.05
2024-05-09T07:48:56.521Z,51.11
2024-05-09T07:53:37.830Z,51.70
2024-05-09T07:56:23.161Z,50.98
2024-05-09T07:59:09.798Z,50.60
2024-05-09T08:01:55.679Z,51.21
2024-05-09T08:04:41.269Z,51.26
2024-05-09T08:07:26.831Z,49.06
2024-05-09T08:10:15.398Z,48.08
2024-05-09T08:13:04.711Z,47.82
2024-05-09T08:15:51.795Z,48.54
2024-05-09T08:18:37.594Z,49.28
2024-05-09T08:21:23.604Z,47.84
2024-05-09T08:24:10.561Z,48.03
2024-05-09T08:26:55.868Z,45.86
2024-05-09T08:29:41.470Z,46.83
2024-05-09T08:32:27.527Z,45.97
2024-05-09T08:35:12.746Z,46.02
2024-05-09T08:37:58.275Z,47.00
2024-05-09T08:40:43.852Z,48.07
2024-05-09T08:43:30.218Z,48.50
2024-05-09T08:46:18.524Z,47.79
2024-05-09T08:49:04.769Z,47.75
2024-05-09T08:51:50.576Z,48.17
2024-05-09T08:54:36.006Z,47.42
2024-05-09T08:57:22.800Z,47.80
2024-05-09T09:00:12.723Z,46.95
2024-05-09T09:03:02.809Z,45.98
2024-05-09T09:06:12.698Z,46.74
2024-05-09T09:08:59.408Z,46.61
2024-05-09T09:11:45.281Z,46.06
2024-05-09T09:14:30.532Z,46.28
2024-05-09T09:17:16.886Z,46.83
2024-05-09T09:20:02.695Z,46.38
2024-05-09T09:22:48.270Z,46.66
2024-05-09T09:25:33.991Z,46.79
2024-05-09T09:28:23.418Z,47.13
2024-05-09T09:31:09.091Z,46.14
2024-05-09T09:33:54.919Z,45.28
2024-05-09T09:36:42.939Z,45.22
2024-05-09T09:39:31.861Z,45.07
2024-05-09T09:42:18.488Z,45.12
2024-05-09T09:45:05.779Z,45.14
2024-05-09T09:47:57.147Z,45.08
2024-05-09T09:50:43.422Z,45.89
2024-05-09T09:53:29.379Z,46.65
2024-05-09T09:56:18.100Z,44.50
2024-05-09T09:59:04.737Z,45.33
2024-05-09T10:01:50.547Z,45.86
2024-05-09T10:04:36.770Z,45.22
2024-05-09T10:07:23.015Z,45.42
2024-05-09T10:10:11.026Z,45.02
2024-05-09T10:13:07.666Z,44.86
2024-05-09T10:15:54.476Z,45.92
2024-05-09T10:18:41.495Z,45.15
2024-05-09T10:21:27.538Z,45.80
2024-05-09T10:24:12.939Z,45.27
2024-05-09T10:26:58.567Z,45.18
2024-05-09T10:29:58.433Z,43.65
2024-05-09T10:32:44.995Z,44.63
2024-05-09T10:35:32.132Z,44.56
2024-05-09T10:38:18.241Z,44.67
2024-05-09T10:41:04.922Z,42.90
2024-05-09T10:43:51.425Z,43.36
2024-05-09T10:46:37.356Z,42.80
2024-05-09T10:49:23.143Z,43.67
2024-05-09T10:52:08.942Z,43.57
2024-05-09T10:54:54.868Z,43.08
2024-05-09T10:57:41.032Z,43.49
2024-05-09T11:00:36.109Z,43.27
2024-05-09T11:03:25.854Z,43.73
2024-05-09T11:06:11.939Z,43.95
2024-05-09T11:08:57.863Z,44.28
2024-05-09T11:11:43.291Z,44.68
2024-05-09T11:14:28.667Z,44.59
2024-05-09T11:17:14.299Z,44.36
2024-05-09T11:20:00.570Z,44.48
2024-05-09T11:22:46.151Z,43.54
2024-05-09T11:25:33.302Z,42.92
2024-05-09T11:28:19.424Z,43.35
2024-05-09T11:31:10.396Z,43.34
2024-05-09T11:33:56.670Z,43.39
2024-05-09T11:36:41.974Z,41.93
2024-05-09T11:39:27.521Z,41.81
2024-05-09T11:42:13.090Z,42.75
2024-05-09T11:44:58.397Z,43.18
2024-05-09T11:47:44.174Z,42.83
2024-05-09T11:50:34.683Z,43.49
2024-05-09T11:53:21.286Z,43.72
2024-05-09T11:56:07.359Z,42.41
2024-05-09T11:58:53.315Z,42.52
2024-05-09T12:01:38.693Z,42.77
2024-05-09T12:04:24.465Z,41.93
2024-05-09T12:07:12.656Z,40.96
2024-05-09T12:09:58.277Z,41.28
2024-05-09T12:12:44.114Z,40.96
2024-05-09T12:15:29.457Z,41.58
2024-05-09T12:18:15.024Z,42.02
2024-05-09T12:21:01.643Z,41.40
2024-05-09T12:23:47.208Z,41.44
2024-05-09T12:26:33.085Z,41.91
2024-05-09T12:29:18.367Z,42.57
2024-05-09T12:32:03.936Z,42.95
2024-05-09T12:34:49.487Z,41.60
2024-05-09T12:37:34.907Z,41.61
2024-05-09T12:40:26.859Z,42.28
2024-05-09T12:43:19.917Z,40.75
2024-05-09T12:46:05.794Z,40.74
2024-05-09T12:48:51.950Z,40.98
2024-05-09T12:51:38.350Z,40.21
2024-05-09T12:54:23.572Z,41.01
2024-05-09T12:57:09.390Z,40.33
2024-05-09T12:59:55.821Z,41.01
2024-05-09T13:02:41.660Z,41.24
2024-05-09T13:05:27.397Z,40.43
2024-05-09T13:08:16.304Z,40.81
2024-05-09T13:11:01.831Z,40.39
2024-05-09T13:13:47.071Z,40.38
2024-05-09T13:16:32.866Z,40.54
2024-05-09T13:19:18.597Z,40.28
2024-05-09T13:22:04.262Z,40.35
2024-05-09T13:24:49.672Z,39.94
2024-05-09T13:27:35.197Z,39.25
2024-05-09T13:30:29.294Z,39.47
2024-05-09T13:33:29.653Z,40.42
2024-05-09T13:36:21.547Z,40.14
2024-05-09T13:39:07.197Z,39.92
2024-05-09T13:41:52.640Z,40.28
2024-05-09T13:44:38.318Z,40.10
2024-05-09T13:47:24.351Z,39.14
2024-05-09T13:50:14.211Z,39.34
2024-05-09T13:53:07.465Z,38.83
2024-05-09T13:55:54.116Z,39.60
2024-05-09T13:58:39.624Z,39.13
2024-05-09T14:01:25.537Z,39.62
2024-05-09T14:04:11.767Z,39.60
2024-05-09T14:06:57.417Z,38.07
2024-05-09T14:09:42.758Z,38.18
2024-05-09T14:12:28.071Z,38.26
2024-05-09T14:15:13.744Z,38.10
2024-05-09T14:17:59.158Z,38.69
2024-05-09T14:20:44.737Z,38.85
2024-05-09T14:23:30.093Z,38.22
2024-05-09T14:26:15.589Z,38.30
2024-05-09T14:29:01.202Z,38.23
2024-05-09T14:31:53.548Z,39.06
2024-05-09T14:34:45.857Z,37.69
2024-05-09T14:37:31.335Z,39.41
2024-05-09T14:40:30.602Z,38.96
2024-05-09T14:43:22.229Z,38.27
2024-05-09T14:46:07.900Z,38.06
2024-05-09T14:48:53.458Z,38.60
2024-05-09T14:51:40.155Z,37.77
2024-05-09T14:54:25.905Z,38.41
2024-05-09T14:57:11.562Z,38.31
2024-05-09T14:59:57.324Z,38.19
2024-05-09T15:02:42.874Z,37.60
2024-05-09T15:05:28.400Z,37.13
2024-05-09T15:08:14.247Z,37.55
2024-05-09T15:10:59.872Z,37.71
2024-05-09T15:13:45.151Z,38.45
2024-05-09T15:16:31.288Z,38.14
2024-05-09T15:19:17.210Z,37.35
2024-05-09T15:22:03.285Z,37.94
2024-05-09T15:24:48.625Z,37.57
2024-05-09T15:27:34.296Z,37.40
2024-05-09T15:30:28.155Z,37.80
2024-05-09T15:33:17.451Z,37.62
2024-05-09T15:36:10.204Z,38.05
2024-05-09T15:39:03.088Z,38.10
2024-05-09T15:41:56.447Z,38.41
2024-05-09T15:44:42.089Z,38.44
2024-05-09T15:47:28.143Z,38.78
2024-05-09T15:50:20.487Z,38.07
2024-05-09T15:53:14.045Z,37.81
2024-05-09T15:56:28.483Z,37.79
2024-05-09T15:59:16.530Z,38.69
2024-05-09T16:02:11.556Z,38.02
2024-05-09T16:04:57.496Z,37.99
2024-05-09T16:07:42.758Z,38.08
2024-05-09T16:10:32.748Z,38.36
2024-05-09T16:24:11.175Z,37.82
2024-05-09T16:26:57.565Z,37.96
2024-05-09T16:29:44.188Z,37.94
2024-05-09T16:32:29.975Z,38.29
2024-05-09T16:35:16.138Z,38.26
2024-05-09T16:38:03.116Z,37.95
2024-05-09T16:40:48.725Z,38.64
2024-05-09T16:43:34.507Z,38.22
2024-05-09T16:46:20.276Z,38.44
2024-05-09T16:49:05.909Z,38.25
2024-05-09T16:51:51.332Z,39.30
2024-05-09T16:54:37.062Z,39.15
2024-05-09T16:57:22.566Z,38.87
2024-05-09T17:00:14.856Z,39.08
2024-05-09T17:03:07.968Z,39.46
2024-05-09T17:05:53.730Z,39.65
2024-05-09T17:08:40.498Z,41.13
2024-05-09T17:11:26.131Z,40.73
2024-05-09T17:14:11.734Z,42.21
2024-05-09T17:16:57.369Z,42.86
2024-05-09T17:19:44.968Z,43.29
2024-05-09T17:22:31.798Z,44.13
2024-05-09T17:25:17.263Z,44.79
2024-05-09T17:28:07.680Z,44.99
2024-05-09T17:30:53.676Z,45.34
2024-05-09T17:33:39.156Z,45.82
2024-05-09T17:36:25.079Z,46.60
2024-05-09T17:39:10.925Z,46.77
2024-05-09T17:41:56.307Z,47.07
2024-05-09T17:44:41.671Z,47.07
2024-05-09T17:47:27.265Z,47.37
2024-05-09T17:50:17.370Z,48.19
2024-05-09T17:53:10.714Z,48.53
2024-05-09T17:55:56.827Z,48.70
2024-05-09T17:58:42.934Z,49.29
2024-05-09T18:01:28.323Z,49.25
2024-05-09T18:04:14.127Z,49.85
2024-05-09T18:07:00.070Z,49.82
2024-05-09T18:09:45.949Z,50.66
2024-05-09T18:12:31.551Z,50.71
2024-05-09T18:15:17.094Z,51.25
2024-05-09T18:18:03.643Z,51.33
2024-05-09T18:20:49.495Z,51.64
2024-05-09T18:23:34.994Z,51.67
2024-05-09T18:26:20.504Z,52.09
2024-05-09T18:29:06.026Z,52.26
2024-05-09T18:31:51.561Z,52.73
2024-05-09T18:34:37.249Z,52.82
2024-05-09T18:37:23.091Z,52.96
2024-05-09T18:40:12.205Z,53.39
2024-05-09T18:43:06.747Z,53.47
2024-05-09T18:45:53.902Z,53.68
2024-05-09T18:48:39.728Z,53.80
2024-05-09T18:51:25.244Z,54.26
2024-05-09T18:54:10.691Z,54.20
2024-05-09T18:56:56.272Z,54.37
2024-05-09T18:59:41.847Z,54.97
2024-05-09T19:02:27.288Z,54.96
2024-05-09T19:05:13.120Z,55.08
2024-05-09T19:07:58.874Z,55.33
2024-05-09T19:10:47.457Z,55.58
2024-05-09T19:13:33.280Z,56.31
2024-05-09T19:16:19.310Z,56.44
2024-05-09T19:19:05.604Z,56.37
2024-05-09T19:21:51.028Z,56.64
2024-05-09T19:24:36.864Z,56.83
2024-05-09T19:27:22.208Z,57.15
2024-05-09T19:30:17.394Z,57.43
2024-05-09T19:33:12.893Z,57.50
2024-05-09T19:35:59.380Z,57.85
2024-05-09T19:38:45.176Z,57.80
2024-05-09T19:41:30.704Z,58.37
2024-05-09T19:44:16.442Z,58.55
2024-05-09T19:47:02.160Z,58.34
2024-05-09T19:49:47.705Z,58.86
2024-05-09T19:52:33.557Z,58.88
2024-05-09T19:55:19.252Z,58.91
2024-05-09T19:58:07.152Z,59.29
2024-05-09T20:00:53.167Z,59.27
2024-05-09T20:03:38.917Z,59.23
2024-05-09T20:06:25.241Z,59.89
2024-05-09T20:09:10.988Z,60.18
2024-05-09T20:11:56.698Z,60.41
2024-05-09T20:14:42.358Z,60.11
2024-05-09T20:17:28.032Z,60.41
2024-05-09T20:20:20.320Z,60.66
2024-05-09T20:23:14.355Z,60.99
2024-05-09T20:25:59.753Z,60.76
2024-05-09T20:28:46.368Z,60.77
2024-05-09T20:31:31.713Z,61.05
2024-05-09T20:34:17.708Z,61.09
2024-05-09T20:37:10.306Z,61.43
2024-05-09T20:39:56.252Z,61.47
2024-05-09T20:42:44.870Z,61.75
2024-05-09T20:45:30.278Z,61.86
2024-05-09T20:48:15.853Z,62.13
2024-05-09T20:51:01.331Z,62.39
2024-05-09T20:53:47.132Z,62.45
2024-05-09T20:56:32.877Z,62.32
2024-05-09T20:59:18.600Z,62.58
2024-05-09T21:02:04.157Z,62.80
2024-05-09T21:04:49.598Z,62.93
2024-05-09T21:07:35.436Z,63.02
2024-05-09T21:10:22.828Z,63.07
2024-05-09T21:13:08.659Z,63.18
2024-05-09T21:15:54.140Z,63.57
2024-05-09T21:18:39.842Z,63.46
2024-05-09T21:21:25.481Z,63.76
2024-05-09T21:24:10.905Z,63.99
2024-05-09T21:26:56.510Z,63.72
2024-05-09T21:29:41.969Z,64.01
2024-05-09T21:32:27.424Z,64.20
2024-05-09T21:35:12.819Z,64.67
2024-05-09T21:37:58.251Z,64.56
2024-05-09T21:40:44.227Z,64.70
2024-05-09T21:43:31.629Z,65.04
2024-05-09T21:46:17.093Z,64.86
2024-05-09T21:49:03.298Z,64.72
2024-05-09T21:51:49.627Z,65.06
2024-05-09T21:54:35.304Z,65.33
2024-05-09T21:57:21.910Z,65.44
2024-05-09T22:00:25.117Z,65.56
2024-05-09T22:03:18.164Z,65.49
2024-05-09T22:06:03.735Z,65.39
2024-05-09T22:08:49.168Z,65.51
2024-05-09T22:11:35.022Z,65.53
2024-05-09T22:14:21.590Z,65.88
2024-05-09T22:17:07.026Z,65.78
2024-05-09T22:19:53.063Z,65.95
2024-05-09T22:22:38.656Z,66.17
2024-05-09T22:25:26.077Z,66.23
2024-05-09T22:28:15.500Z,66.15
2024-05-09T22:31:00.998Z,66.29
2024-05-09T22:33:48.255Z,66.38
2024-05-09T22:36:34.071Z,66.41
2024-05-09T22:39:19.623Z,66.27
2024-05-09T22:42:05.219Z,66.70
2024-05-09T22:44:50.519Z,66.64
2024-05-09T22:47:35.930Z,67.09
2024-05-09T22:50:26.811Z,67.24
2024-05-09T22:53:16.448Z,67.12
2024-05-09T22:56:01.864Z,67.29
2024-05-09T22:58:47.333Z,67.42
2024-05-09T23:01:33.367Z,67.51
2024-05-09T23:04:51.099Z,67.53
2024-05-09T23:07:38.797Z,67.44
2024-05-09T23:10:31.593Z,67.47
2024-05-09T23:13:21.235Z,67.48
2024-05-09T23:16:07.180Z,67.65
2024-05-09T23:18:52.556Z,67.62
2024-05-09T23:21:40.147Z,68.02
2024-05-09T23:24:25.716Z,67.96
2024-05-09T23:27:11.468Z,68.22
2024-05-09T23:29:57.356Z,68.37
2024-05-09T23:32:42.997Z,68.43
2024-05-09T23:35:28.769Z,68.52
2024-05-09T23:38:14.534Z,68.31
2024-05-09T23:41:00.031Z,68.65
2024-05-09T23:43:45.484Z,68.44
2024-05-09T23:46:31.285Z,68.39
2024-05-09T23:49:16.659Z,68.42
2024-05-09T23:52:02.112Z,68.23
2024-05-09T23:54:47.598Z,68.24
2024-05-09T23:57:33.336Z,68.41
